Time;durP1;ratioP1;P1;durP2;ratioP2;P2;SDS_P1;SDS_P2;PMS_P1;PMS_P2;Temp;Humidity;BMP_temperature;BMP_pressure;BME280_temperature;BME280_humidity;BME280_pressure;Samples;Min_cycle;Max_cycle;Signal;HPM_P1;HPM_P2
2020/12/30 00:00:08;;;;;;;43.23;14.50;;;;;;;4.47;97.61;101437.08;1726775;82;21156;-88
2020/12/30 00:02:35;;;;;;;43.05;14.23;;;;;;;4.47;97.67;101447.75;1726496;82;21647;-89
2020/12/30 00:05:09;;;;;;;45.98;15.45;;;;;;;4.58;97.78;101444.19;1726774;82;21110;-89
2020/12/30 00:07:36;;;;;;;52.75;16.07;;;;;;;4.47;97.90;101445.08;1706191;83;21129;-89
2020/12/30 00:10:04;;;;;;;46.35;14.93;;;;;;;4.46;98.05;101442.08;1714432;82;21151;-89
2020/12/30 00:12:33;;;;;;;46.95;14.70;;;;;;;4.43;97.85;101448.33;1714388;83;21221;-89
2020/12/30 00:14:59;;;;;;;49.10;15.78;;;;;;;4.43;97.94;101446.48;1707686;82;21260;-89
2020/12/30 00:17:26;;;;;;;50.90;15.53;;;;;;;4.38;98.15;101450.24;1706297;84;21384;-88
2020/12/30 00:19:52;;;;;;;53.17;16.00;;;;;;;4.49;98.12;101450.20;1706467;84;21585;-88
2020/12/30 00:22:19;;;;;;;49.45;15.70;;;;;;;4.48;98.20;101445.90;1706485;84;21141;-89
2020/12/30 00:24:45;;;;;;;56.70;16.30;;;;;;;4.31;99.29;101442.21;1706426;84;21172;-88
2020/12/30 00:27:12;;;;;;;59.98;16.70;;;;;;;4.37;99.23;101443.27;1706242;84;21586;-88
2020/12/30 00:29:39;;;;;;;56.40;16.20;;;;;;;4.35;99.25;101441.30;1706416;84;21623;-88
2020/12/30 00:32:13;;;;;;;59.53;17.52;;;;;;;4.39;99.08;101434.56;1706348;84;21140;-88
2020/12/30 00:34:41;;;;;;;52.88;15.40;;;;;;;4.31;99.11;101438.20;1706426;84;21108;-88
2020/12/30 00:37:08;;;;;;;53.40;16.10;;;;;;;4.06;100.00;101436.55;1706298;84;21493;-87
2020/12/30 00:39:33;;;;;;;54.55;16.30;;;;;;;4.05;99.69;101438.88;1706262;84;21184;-88
2020/12/30 00:41:59;;;;;;;53.65;16.80;;;;;;;3.93;99.71;101443.11;1706493;84;21124;-88
2020/12/30 00:44:25;;;;;;;66.37;18.27;;;;;;;3.85;100.00;101437.44;1706695;84;20959;-88
2020/12/30 00:46:54;;;;;;;54.85;16.82;;;;;;;3.84;100.00;101440.28;1706329;84;21203;-88
2020/12/30 00:49:20;;;;;;;67.05;19.15;;;;;;;3.68;100.00;101441.89;1653151;86;22161;-88
2020/12/30 00:51:57;;;;;;;61.48;17.77;;;;;;;3.55;100.00;101435.95;1653270;86;21206;-89
2020/12/30 00:54:24;;;;;;;69.10;18.32;;;;;;;3.43;100.00;101434.83;1653232;86;21182;-88
2020/12/30 00:56:52;;;;;;;73.37;19.57;;;;;;;3.52;100.00;101440.34;1656286;85;21282;-88
2020/12/30 00:59:18;;;;;;;64.20;17.82;;;;;;;3.67;100.00;101442.41;1683726;85;21244;-88
2020/12/30 01:01:52;;;;;;;65.25;17.50;;;;;;;3.63;100.00;101436.64;1683797;85;21665;-88
2020/12/30 01:04:20;;;;;;;57.98;17.52;;;;;;;3.66;100.00;101442.09;1681203;85;21199;-88
2020/12/30 01:06:52;;;;;;;66.10;18.30;;;;;;;3.69;100.00;101445.71;1683644;85;21092;-88
2020/12/30 01:09:20;;;;;;;63.15;18.25;;;;;;;3.77;100.00;101444.75;1633627;87;21657;-88
2020/12/30 01:11:46;;;;;;;71.90;17.77;;;;;;;3.66;100.00;101447.94;1633516;87;21255;-88
2020/12/30 01:14:12;;;;;;;69.22;17.77;;;;;;;3.63;100.00;101441.15;1639789;87;22063;-88
2020/12/30 01:16:38;;;;;;;60.50;17.52;;;;;;;3.68;100.00;101442.73;1647977;87;21085;-88
2020/12/30 01:19:07;;;;;;;65.90;17.70;;;;;;;3.68;100.00;101448.55;1647995;87;21252;-88
2020/12/30 01:21:41;;;;;;;69.25;18.37;;;;;;;3.54;100.00;101446.30;1647878;87;21612;-88
2020/12/30 01:24:07;;;;;;;54.38;15.83;;;;;;;3.67;100.00;101448.25;1646011;87;21629;-88
2020/12/30 01:26:34;;;;;;;59.95;18.02;;;;;;;3.86;100.00;101440.92;1647912;87;21353;-88
2020/12/30 01:29:00;;;;;;;63.78;18.45;;;;;;;3.85;100.00;101447.25;1647899;87;21219;-88
2020/12/30 01:31:30;;;;;;;66.77;19.77;;;;;;;3.97;100.00;101446.20;1648229;87;20983;-88
2020/12/30 01:33:56;;;;;;;67.80;19.67;;;;;;;4.06;100.00;101448.55;1647824;87;21231;-88
2020/12/30 01:36:23;;;;;;;75.25;21.60;;;;;;;4.02;100.00;101449.12;1648077;87;21192;-88
2020/12/30 01:38:49;;;;;;;66.50;21.25;;;;;;;4.08;100.00;101447.00;1648126;87;21802;-88
2020/12/30 01:41:16;;;;;;;70.45;20.35;;;;;;;4.07;100.00;101456.03;1648156;87;21610;-88
2020/12/30 01:43:59;;;;;;;66.57;20.15;;;;;;;3.97;100.00;101455.05;1648254;87;21506;-88
2020/12/30 01:46:44;;;;;;;65.42;18.90;;;;;;;4.00;100.00;101457.81;1625771;86;21196;-88
2020/12/30 01:49:17;;;;;;;66.67;19.17;;;;;;;3.95;100.00;101454.41;1642242;87;21211;-88
2020/12/30 01:51:43;;;;;;;68.00;18.32;;;;;;;3.81;100.00;101452.16;1642046;87;21395;-88
2020/12/30 01:54:15;;;;;;;57.83;16.77;;;;;;;3.84;100.00;101452.28;1642206;86;21142;-88
2020/12/30 01:56:43;;;;;;;62.20;16.30;;;;;;;3.69;100.00;101452.38;1642237;86;21629;-88
2020/12/30 01:59:12;;;;;;;64.62;16.80;;;;;;;3.60;100.00;101454.86;1642254;87;21220;-88
2020/12/30 02:01:40;;;;;;;63.10;16.82;;;;;;;3.62;100.00;101458.98;1642958;87;21171;-88
2020/12/30 02:04:10;;;;;;;56.63;17.27;;;;;;;3.42;100.00;101455.33;1643277;86;21249;-88
2020/12/30 02:06:37;;;;;;;60.35;16.25;;;;;;;3.49;100.00;101454.86;1666101;85;21275;-88
2020/12/30 02:09:05;;;;;;;57.73;17.30;;;;;;;3.43;100.00;101442.83;1675927;85;21135;-88
2020/12/30 02:11:33;;;;;;;61.23;17.42;;;;;;;3.41;100.00;101443.85;1675834;85;21230;-88
2020/12/30 02:14:11;;;;;;;61.92;17.20;;;;;;;3.34;100.00;101444.80;1678328;83;21251;-88
2020/12/30 02:16:51;;;;;;;55.05;16.57;;;;;;;3.31;100.00;101446.51;1686360;83;21621;-88
2020/12/30 02:19:18;;;;;;;57.75;16.95;;;;;;;3.37;100.00;101441.75;1686534;85;21168;-89
2020/12/30 02:21:44;;;;;;;58.95;17.27;;;;;;;3.33;100.00;101440.48;1686497;85;21204;-88
2020/12/30 02:24:21;;;;;;;54.93;16.12;;;;;;;3.38;100.00;101440.72;1686477;85;21223;-88
2020/12/30 02:26:49;;;;;;;56.90;16.20;;;;;;;3.38;100.00;101434.91;1640481;87;22236;-88
2020/12/30 02:29:15;;;;;;;61.88;16.48;;;;;;;3.34;100.00;101444.80;1640442;87;22385;-88
2020/12/30 02:31:41;;;;;;;52.30;16.32;;;;;;;3.32;100.00;101450.30;1640425;87;21009;-88
2020/12/30 02:34:07;;;;;;;54.70;16.37;;;;;;;3.33;100.00;101445.82;1640515;87;21001;-88
2020/12/30 02:36:33;;;;;;;56.63;16.87;;;;;;;3.44;100.00;101447.13;1640407;87;21032;-88
2020/12/30 02:38:59;;;;;;;65.03;18.15;;;;;;;3.52;100.00;101455.81;1640405;87;21151;-88
2020/12/30 02:41:24;;;;;;;63.08;18.12;;;;;;;3.55;100.00;101445.28;1640567;87;21644;-88
2020/12/30 02:43:50;;;;;;;62.30;18.50;;;;;;;3.68;100.00;101445.41;1640472;87;21151;-88
2020/12/30 02:46:16;;;;;;;62.53;19.65;;;;;;;3.81;100.00;101442.83;1636995;87;21220;-88
2020/12/30 02:48:42;;;;;;;63.42;18.82;;;;;;;3.84;100.00;101444.28;1641791;84;21196;-88
2020/12/30 02:51:08;;;;;;;62.93;18.85;;;;;;;3.96;100.00;101445.39;1656833;86;21196;-88
2020/12/30 02:53:34;;;;;;;68.12;20.37;;;;;;;4.12;100.00;101446.09;1662427;85;21123;-91
2020/12/30 02:56:00;;;;;;;55.10;16.73;;;;;;;4.08;100.00;101447.00;1672620;85;21062;-89
2020/12/30 02:58:26;;;;;;;64.92;17.80;;;;;;;4.13;100.00;101437.09;1672477;85;21217;-89
2020/12/30 03:00:52;;;;;;;62.03;19.82;;;;;;;4.16;100.00;101434.84;1672502;85;21160;-89
2020/12/30 03:03:18;;;;;;;62.15;18.77;;;;;;;4.10;100.00;101428.45;1679374;82;21008;-89
2020/12/30 03:05:44;;;;;;;61.35;18.95;;;;;;;4.27;100.00;101434.81;1726217;82;21858;-89
2020/12/30 03:08:09;;;;;;;58.90;17.27;;;;;;;4.26;100.00;101436.64;1726335;82;21616;-89
2020/12/30 03:10:36;;;;;;;59.35;17.10;;;;;;;4.36;100.00;101434.96;1726374;82;20951;-89
2020/12/30 03:13:02;;;;;;;56.20;16.15;;;;;;;4.30;100.00;101430.42;1726618;82;21638;-89
2020/12/30 03:15:27;;;;;;;59.08;17.50;;;;;;;4.27;100.00;101422.81;1726262;82;21043;-88
2020/12/30 03:17:53;;;;;;;58.52;16.90;;;;;;;4.37;100.00;101421.92;1705087;83;21207;-89
2020/12/30 03:20:19;;;;;;;64.22;18.90;;;;;;;4.43;100.00;101417.64;1726326;83;21613;-89
2020/12/30 03:22:45;;;;;;;54.48;17.32;;;;;;;4.53;100.00;101417.59;1726395;82;20916;-89
2020/12/30 03:25:11;;;;;;;60.23;18.45;;;;;;;4.56;100.00;101423.05;1726748;82;20955;-89
2020/12/30 03:27:39;;;;;;;58.48;17.42;;;;;;;4.60;100.00;101422.12;1730269;82;20983;-89
2020/12/30 03:30:05;;;;;;;61.53;17.90;;;;;;;4.68;100.00;101424.63;1730753;82;21312;-89
2020/12/30 03:32:31;;;;;;;63.42;18.02;;;;;;;4.86;100.00;101434.75;1730665;82;21156;-89
2020/12/30 03:34:57;;;;;;;61.05;17.80;;;;;;;4.82;100.00;101429.48;1730848;82;21129;-89
2020/12/30 03:37:23;;;;;;;66.00;19.50;;;;;;;4.88;100.00;101429.52;1730852;82;21618;-89
2020/12/30 03:39:49;;;;;;;66.70;18.35;;;;;;;4.89;100.00;101421.81;1704696;82;21006;-89
2020/12/30 03:42:15;;;;;;;63.38;19.12;;;;;;;5.01;99.46;101418.04;1730852;82;21164;-89
2020/12/30 03:44:41;;;;;;;60.33;18.67;;;;;;;4.96;99.21;101414.62;1730768;82;20963;-88
2020/12/30 03:47:07;;;;;;;59.08;18.27;;;;;;;5.01;99.15;101412.17;1706165;82;21226;-89
2020/12/30 03:49:34;;;;;;;59.27;18.48;;;;;;;5.03;99.00;101404.47;1730743;82;21263;-89
2020/12/30 03:52:02;;;;;;;59.65;18.20;;;;;;;5.04;98.60;101408.28;1730615;82;21177;-89
2020/12/30 03:54:31;;;;;;;59.25;18.07;;;;;;;5.07;98.62;101411.88;1730652;81;21606;-89
2020/12/30 03:56:57;;;;;;;62.17;18.77;;;;;;;5.03;98.32;101416.48;1730645;82;22068;-88
2020/12/30 03:59:23;;;;;;;53.50;17.70;;;;;;;5.06;98.73;101416.92;1730624;82;21034;-89
2020/12/30 04:01:49;;;;;;;58.92;17.60;;;;;;;5.13;98.54;101419.59;1730301;82;20978;-88
2020/12/30 04:04:15;;;;;;;56.95;16.75;;;;;;;5.06;98.09;101426.77;1730934;82;21054;-88
2020/12/30 04:06:42;;;;;;;55.38;17.45;;;;;;;5.14;98.23;101423.39;1730222;82;21213;-89
2020/12/30 04:09:08;;;;;;;55.58;17.15;;;;;;;5.14;97.89;101433.26;1730404;82;21132;-89
2020/12/30 04:11:34;;;;;;;55.83;17.62;;;;;;;5.14;98.20;101435.93;1731052;82;21257;-89
2020/12/30 04:14:00;;;;;;;60.78;18.65;;;;;;;5.14;98.01;101439.94;1731231;81;21156;-88
2020/12/30 04:16:26;;;;;;;50.83;16.80;;;;;;;5.21;97.81;101432.77;1738708;82;21096;-88
2020/12/30 04:18:52;;;;;;;55.70;17.00;;;;;;;5.21;97.10;101443.46;1738954;82;22328;-88
2020/12/30 04:21:24;;;;;;;50.67;17.05;;;;;;;5.27;97.36;101441.31;1738803;82;21212;-90
2020/12/30 04:23:51;;;;;;;54.58;17.50;;;;;;;5.21;97.01;101429.58;1739053;81;21132;-88
2020/12/30 04:26:19;;;;;;;47.65;16.02;;;;;;;5.18;96.35;101439.86;1737890;82;21146;-89
2020/12/30 04:28:45;;;;;;;57.75;18.00;;;;;;;5.22;96.83;101440.57;1734415;82;21377;-89
2020/12/30 04:31:16;;;;;;;50.55;16.37;;;;;;;5.22;96.87;101441.91;1735014;82;21209;-88
2020/12/30 04:33:42;;;;;;;50.05;16.90;;;;;;;5.27;96.35;101447.17;1734690;82;21145;-89
2020/12/30 04:36:08;;;;;;;52.48;17.23;;;;;;;5.21;95.73;101447.47;1734786;82;21122;-89
2020/12/30 04:38:36;;;;;;;54.55;17.25;;;;;;;5.26;96.55;101451.67;1734765;82;21181;-89
2020/12/30 04:41:05;;;;;;;52.03;17.12;;;;;;;5.25;96.17;101443.35;1734796;82;21110;-89
2020/12/30 04:43:31;;;;;;;59.73;16.37;;;;;;;5.26;95.92;101446.33;1734326;82;21160;-89
2020/12/30 04:45:59;;;;;;;50.28;16.48;;;;;;;5.31;95.72;101441.72;1734682;82;21126;-88
2020/12/30 04:48:26;;;;;;;49.35;15.90;;;;;;;5.19;95.52;101453.00;1734497;82;21130;-88
2020/12/30 04:50:53;;;;;;;53.15;17.20;;;;;;;5.28;95.37;101454.97;1734783;82;21066;-89
2020/12/30 04:53:23;;;;;;;49.10;16.10;;;;;;;5.26;95.64;101468.22;1734767;82;21523;-88
2020/12/30 04:55:51;;;;;;;50.83;15.93;;;;;;;5.27;95.53;101466.70;1734834;82;21199;-89
2020/12/30 04:58:19;;;;;;;54.15;16.35;;;;;;;5.25;94.99;101474.08;1734818;81;21126;-89
2020/12/30 05:00:48;;;;;;;48.15;15.95;;;;;;;5.19;95.33;101477.05;1738472;82;21038;-88
2020/12/30 05:03:15;;;;;;;54.15;16.40;;;;;;;5.22;95.36;101472.63;1727247;82;21194;-89
2020/12/30 05:05:42;;;;;;;52.08;15.78;;;;;;;5.23;94.77;101478.31;1734867;81;21204;-89
2020/12/30 05:08:14;;;;;;;45.20;15.35;;;;;;;5.22;94.28;101463.80;1734856;81;21147;-88
2020/12/30 05:10:45;;;;;;;50.98;16.48;;;;;;;5.16;94.67;101474.78;1734475;82;21195;-89
2020/12/30 05:13:11;;;;;;;55.40;17.23;;;;;;;5.31;94.47;101471.11;1734837;81;21215;-88
2020/12/30 05:15:37;;;;;;;51.55;16.50;;;;;;;5.17;94.18;101471.07;1735544;81;21197;-89
2020/12/30 05:18:06;;;;;;;47.80;15.30;;;;;;;5.16;94.20;101474.78;1734814;82;21618;-89
2020/12/30 05:20:36;;;;;;;46.50;15.60;;;;;;;5.14;94.41;101475.48;1735866;82;21146;-89
2020/12/30 05:23:12;;;;;;;47.67;15.30;;;;;;;5.17;94.25;101471.59;1735970;81;21070;-88
2020/12/30 05:25:43;;;;;;;47.73;15.13;;;;;;;5.14;94.48;101478.67;1734770;82;21126;-89
2020/12/30 05:28:12;;;;;;;49.75;14.80;;;;;;;5.22;94.22;101475.83;1734748;82;21566;-89
2020/12/30 05:30:40;;;;;;;51.75;16.00;;;;;;;5.08;93.77;101479.48;1734528;82;21240;-89
2020/12/30 05:33:07;;;;;;;42.50;14.53;;;;;;;5.11;94.16;101486.58;1734740;82;22174;-89
2020/12/30 05:35:34;;;;;;;42.62;14.23;;;;;;;5.06;94.12;101494.39;1734685;82;21189;-87
2020/12/30 05:38:01;;;;;;;51.50;16.17;;;;;;;5.00;93.56;101489.86;1738290;82;21118;-88
2020/12/30 05:40:31;;;;;;;47.73;15.28;;;;;;;4.96;93.90;101486.73;1734620;82;21133;-88
2020/12/30 05:43:16;;;;;;;49.85;16.75;;;;;;;4.97;94.06;101490.23;1690661;84;21324;-88
2020/12/30 05:45:51;;;;;;;54.73;16.87;;;;;;;5.04;94.36;101487.09;1688077;84;21418;-89
2020/12/30 05:48:20;;;;;;;51.08;17.00;;;;;;;5.16;94.30;101487.33;1690606;84;21171;-88
2020/12/30 05:50:57;;;;;;;51.30;17.17;;;;;;;4.98;93.58;101499.39;1690768;84;21516;-90
2020/12/30 05:53:25;;;;;;;55.90;17.77;;;;;;;5.00;93.81;101504.55;1690695;84;21183;-88
2020/12/30 05:56:09;;;;;;;50.60;16.60;;;;;;;4.90;93.49;101512.09;1690668;84;21091;-89
2020/12/30 05:58:42;;;;;;;51.83;17.23;;;;;;;4.90;93.37;101508.09;1661652;86;21369;-88
2020/12/30 06:01:27;;;;;;;56.68;16.55;;;;;;;5.05;94.20;101500.73;1660111;86;21159;-88
2020/12/30 06:03:54;;;;;;;50.28;17.12;;;;;;;4.95;93.15;101510.99;1670574;85;21197;-88
2020/12/30 06:06:22;;;;;;;57.33;16.70;;;;;;;4.97;93.90;101511.59;1670435;84;21190;-88
2020/12/30 06:08:51;;;;;;;46.85;15.93;;;;;;;5.04;93.96;101512.46;1647671;85;21226;-88
2020/12/30 06:11:28;;;;;;;45.38;15.45;;;;;;;5.10;94.15;101506.83;1670322;85;21674;-88
2020/12/30 06:13:55;;;;;;;46.30;15.70;;;;;;;5.04;92.95;101515.13;1647540;85;20978;-88
2020/12/30 06:16:26;;;;;;;50.03;15.60;;;;;;;5.17;93.33;101513.00;1662377;85;21188;-88
2020/12/30 06:18:56;;;;;;;47.03;15.68;;;;;;;5.29;93.88;101519.41;1656976;85;21607;-89
2020/12/30 06:21:24;;;;;;;43.92;15.53;;;;;;;5.26;92.57;101517.14;1660678;85;21299;-88
2020/12/30 06:23:57;;;;;;;51.33;17.32;;;;;;;5.14;91.72;101521.42;1660654;85;21234;-89
2020/12/30 06:26:27;;;;;;;45.23;14.87;;;;;;;4.89;91.74;101527.30;1638042;86;21169;-88
2020/12/30 06:28:55;;;;;;;45.75;16.20;;;;;;;4.89;92.24;101527.82;1660484;85;21115;-88
2020/12/30 06:31:22;;;;;;;48.05;15.50;;;;;;;4.87;92.35;101529.34;1660792;85;21174;-88
2020/12/30 06:33:48;;;;;;;45.23;15.28;;;;;;;4.91;93.15;101522.59;1649681;85;21202;-88
2020/12/30 06:36:25;;;;;;;45.65;14.95;;;;;;;4.95;93.34;101521.67;1644559;87;21251;-89
2020/12/30 06:38:51;;;;;;;45.83;14.98;;;;;;;4.98;93.74;101519.42;1579000;89;21028;-88
2020/12/30 06:41:18;;;;;;;51.20;16.73;;;;;;;5.01;93.75;101534.23;1588421;89;21056;-88
2020/12/30 06:43:50;;;;;;;37.95;13.72;;;;;;;5.10;93.77;101544.23;1574807;91;21615;-88
2020/12/30 06:46:27;;;;;;;45.43;15.30;;;;;;;5.10;92.59;101535.70;1574760;91;21226;-88
2020/12/30 06:49:07;;;;;;;43.78;14.60;;;;;;;5.13;92.20;101537.16;1574801;91;22111;-88
2020/12/30 06:51:40;;;;;;;44.50;15.13;;;;;;;5.19;92.66;101541.69;1525264;94;21274;-88
2020/12/30 06:54:07;;;;;;;43.80;15.53;;;;;;;5.16;92.50;101543.43;1526957;91;21203;-88
2020/12/30 06:56:44;;;;;;;48.17;15.28;;;;;;;5.13;92.48;101541.98;1572539;91;21120;-88
2020/12/30 07:02:04;;;;;;;45.05;14.87;;;;;;;4.99;92.62;101549.11;1554889;91;21208;-88
2020/12/30 07:04:37;;;;;;;;;;;;;;;4.90;92.51;101551.64;1557267;92;21267;-88
2020/12/30 07:07:20;;;;;;;52.08;16.32;;;;;;;4.86;92.89;101542.39;1555181;91;20276;-88
2020/12/30 07:09:46;;;;;;;;;;;;;;;5.01;93.11;101549.74;1557055;92;21662;-88
2020/12/30 07:12:12;;;;;;;47.75;13.65;;;;;;;5.14;93.01;101548.14;1555063;92;20213;-89
2020/12/30 07:14:38;;;;;;;44.15;14.85;;;;;;;5.29;93.51;101542.64;1554978;92;21942;-88
2020/12/30 07:17:06;;;;;;;46.55;15.48;;;;;;;5.37;93.40;101545.95;1574975;90;21066;-88
2020/12/30 07:19:38;;;;;;;45.28;15.10;;;;;;;5.51;93.74;101546.00;1578554;90;21185;-88
2020/12/30 07:22:14;;;;;;;44.77;14.95;;;;;;;5.63;93.52;101547.05;1522936;94;21337;-88
2020/12/30 07:24:46;;;;;;;45.95;14.15;;;;;;;5.76;93.28;101548.38;1522930;93;21230;-88
2020/12/30 07:27:15;;;;;;;43.00;14.98;;;;;;;5.85;92.50;101543.17;1482578;95;21460;-88
2020/12/30 07:29:44;;;;;;;44.30;13.72;;;;;;;5.88;92.34;101546.77;1482423;96;21218;-89
2020/12/30 07:32:12;;;;;;;42.40;14.25;;;;;;;5.92;91.63;101544.50;1482345;96;21282;-88
2020/12/30 07:34:50;;;;;;;41.25;14.23;;;;;;;5.88;90.89;101542.77;1482440;96;21298;-89
2020/12/30 07:37:17;;;;;;;40.85;14.20;;;;;;;5.89;91.44;101556.44;1435989;99;21309;-89
2020/12/30 07:39:46;;;;;;;44.27;13.80;;;;;;;6.02;91.69;101554.30;1434873;98;21718;-89
2020/12/30 07:42:23;;;;;;;44.98;15.15;;;;;;;6.16;91.90;101566.35;1415492;100;21342;-89
2020/12/30 07:44:58;;;;;;;39.03;13.30;;;;;;;6.33;92.79;101550.19;1414361;101;21304;-89
2020/12/30 07:47:28;;;;;;;44.35;13.78;;;;;;;6.51;92.68;101548.20;1408538;100;21318;-89
2020/12/30 07:50:04;;;;;;;44.13;14.10;;;;;;;6.70;91.62;101541.13;1408054;101;21235;-89
2020/12/30 07:52:31;;;;;;;40.43;13.58;;;;;;;6.66;90.46;101547.95;1407197;101;21334;-89
2020/12/30 07:55:00;;;;;;;43.52;13.45;;;;;;;6.82;91.69;101549.66;1407867;101;21205;-90
2020/12/30 07:57:27;;;;;;;40.83;14.03;;;;;;;6.81;90.29;101552.02;1418179;100;21255;-89
2020/12/30 07:59:53;;;;;;;33.18;12.55;;;;;;;6.91;91.01;101550.74;1421072;100;21161;-89
2020/12/30 08:02:20;;;;;;;37.53;14.03;;;;;;;6.95;89.73;101548.78;1422558;100;21234;-89
2020/12/30 08:04:48;;;;;;;43.92;13.43;;;;;;;7.02;89.16;101548.75;1452186;96;22061;-89
2020/12/30 08:07:16;;;;;;;38.58;13.58;;;;;;;7.07;87.63;101550.80;1476597;96;21265;-90
2020/12/30 08:09:44;;;;;;;50.35;15.72;;;;;;;7.12;88.45;101555.84;1479579;96;21254;-89
2020/12/30 08:12:13;;;;;;;43.98;15.03;;;;;;;7.22;89.52;101556.19;1480470;96;21304;-89
2020/12/30 08:14:45;;;;;;;40.43;14.38;;;;;;;7.30;89.11;101555.66;1480207;96;21502;-89
2020/12/30 08:17:15;;;;;;;40.98;13.05;;;;;;;7.14;85.75;101556.95;1502217;93;21674;-89
2020/12/30 08:19:46;;;;;;;36.23;12.70;;;;;;;7.08;86.11;101551.09;1559423;90;21242;-89
2020/12/30 08:24:57;;;;;;;35.23;12.60;;;;;;;7.01;85.30;101562.67;1583641;89;21242;-89
2020/12/30 08:27:28;;;;;;;41.80;14.00;;;;;;;7.22;88.12;101563.41;1582924;90;21129;-89
2020/12/30 08:29:56;;;;;;;140.62;46.85;;;;;;;7.26;87.90;101557.91;1583160;90;21245;-90
2020/12/30 08:32:38;;;;;;;55.98;19.10;;;;;;;7.44;89.31;101554.02;1582996;90;21115;-89
2020/12/30 08:35:20;;;;;;;38.60;14.13;;;;;;;7.53;89.11;101547.89;1680997;85;21688;-91
2020/12/30 08:38:01;;;;;;;35.15;12.33;;;;;;;7.60;88.36;101541.95;1680918;85;21263;-90
2020/12/30 08:40:34;;;;;;;32.85;13.58;;;;;;;7.74;89.13;101542.69;1694583;83;21203;-91
2020/12/30 17:59:27;;;;;;;49.77;19.00;;;;;;;3.96;95.81;101456.05;1700560;83;21623;-93
2020/12/30 18:01:53;;;;;;;52.13;19.07;;;;;;;3.80;96.03;101439.03;1681914;84;21173;-92
2020/12/30 18:04:18;;;;;;;71.92;24.60;;;;;;;3.90;96.04;101447.50;1704368;83;20970;-93
2020/12/30 18:09:12;;;;;;;56.73;21.12;;;;;;;3.99;95.17;101453.52;1672534;85;21255;-93
2020/12/30 18:11:38;;;;;;;62.43;23.12;;;;;;;3.89;95.14;101445.86;1673679;85;21123;-93
2020/12/30 18:14:04;;;;;;;61.33;21.02;;;;;;;3.94;95.03;101439.93;1672298;85;21167;-93
2020/12/30 18:16:34;;;;;;;50.38;19.42;;;;;;;4.08;94.41;101447.81;1673019;85;21769;-93
2020/12/30 18:19:01;;;;;;;53.42;19.95;;;;;;;4.06;94.19;101443.73;1672584;85;21221;-94
2020/12/30 18:21:27;;;;;;;58.70;19.98;;;;;;;4.16;93.64;101439.36;1672459;85;21252;-93
2020/12/30 18:23:54;;;;;;;55.63;20.27;;;;;;;4.12;93.43;101440.76;1671070;85;21212;-93
2020/12/30 18:26:35;;;;;;;53.33;20.10;;;;;;;4.14;93.38;101440.06;1673450;85;21176;-93
2020/12/30 18:29:03;;;;;;;52.45;20.27;;;;;;;4.11;93.11;101441.27;1648931;85;21172;-93
2020/12/30 18:31:30;;;;;;;44.58;17.30;;;;;;;4.00;93.11;101435.99;1632180;87;21188;-93
2020/12/30 18:33:56;;;;;;;41.50;16.17;;;;;;;4.14;93.14;101446.73;1632320;87;21148;-93
2020/12/30 18:36:32;;;;;;;47.50;16.75;;;;;;;4.07;93.09;101448.03;1632171;87;21635;-92
2020/12/30 18:39:03;;;;;;;51.88;18.27;;;;;;;4.10;92.82;101455.13;1579567;90;21183;-93
2020/12/30 18:41:30;;;;;;;42.93;16.02;;;;;;;4.12;92.58;101450.09;1579610;90;21704;-92
2020/12/30 18:43:57;;;;;;;45.90;17.35;;;;;;;3.97;92.52;101441.72;1579797;90;21200;-92
2020/12/30 18:46:24;;;;;;;46.33;18.30;;;;;;;3.87;93.41;101443.89;1579748;90;21168;-93
2020/12/30 18:48:50;;;;;;;49.50;18.25;;;;;;;3.80;92.87;101446.52;1579821;90;21170;-92
2020/12/30 18:51:17;;;;;;;46.40;17.15;;;;;;;3.83;93.38;101448.80;1571727;91;21227;-93
2020/12/30 18:53:43;;;;;;;50.78;18.25;;;;;;;3.77;93.21;101454.08;1571670;91;21186;-92
2020/12/30 18:56:23;;;;;;;54.33;19.25;;;;;;;3.75;93.28;101454.78;1571697;90;22678;-93
2020/12/30 18:58:49;;;;;;;48.65;18.57;;;;;;;3.78;92.91;101453.05;1571293;91;21253;-93
2020/12/30 19:01:17;;;;;;;48.98;19.12;;;;;;;3.89;92.91;101452.53;1568676;89;21587;-91
2020/12/30 19:03:44;;;;;;;50.95;19.57;;;;;;;3.80;92.79;101455.84;1565371;91;21206;-91
2020/12/30 19:06:12;;;;;;;49.80;19.15;;;;;;;3.84;92.57;101457.09;1543088;91;21209;-90
2020/12/30 19:08:39;;;;;;;49.08;19.30;;;;;;;3.88;92.48;101470.86;1504277;94;21410;-92
2020/12/30 19:11:05;;;;;;;50.92;18.67;;;;;;;3.94;92.04;101466.59;1536041;91;21162;-92
2020/12/30 19:13:31;;;;;;;43.48;17.92;;;;;;;3.90;91.84;101460.02;1549412;92;21234;-92
2020/12/30 19:15:57;;;;;;;47.75;17.40;;;;;;;3.97;91.26;101458.20;1540108;92;21006;-92
2020/12/30 19:18:24;;;;;;;49.27;18.02;;;;;;;3.97;91.72;101460.39;1531006;92;21215;-91
2020/12/30 19:20:53;;;;;;;45.95;17.70;;;;;;;3.83;91.43;101453.31;1530844;92;21224;-92
2020/12/30 19:23:19;;;;;;;51.53;18.02;;;;;;;3.79;91.35;101461.36;1530919;92;21148;-91
2020/12/30 19:25:45;;;;;;;47.43;17.77;;;;;;;3.73;91.86;101460.28;1530943;92;21006;-91
2020/12/30 19:28:11;;;;;;;48.38;18.77;;;;;;;3.74;91.56;101465.13;1536977;90;21823;-91
2020/12/30 19:30:37;;;;;;;47.20;17.60;;;;;;;3.63;91.92;101474.47;1544203;92;21269;-92
2020/12/30 19:33:03;;;;;;;46.00;17.20;;;;;;;3.49;92.51;101471.36;1544129;92;21673;-92
2020/12/30 19:35:28;;;;;;;49.77;18.57;;;;;;;3.49;92.78;101466.86;1543947;92;21073;-92
2020/12/30 19:37:57;;;;;;;46.08;17.30;;;;;;;3.48;92.64;101461.22;1544531;92;21085;-92
2020/12/30 19:40:24;;;;;;;52.62;19.40;;;;;;;3.47;92.76;101452.07;1544040;91;21744;-91
2020/12/30 19:42:50;;;;;;;46.33;18.40;;;;;;;3.43;92.98;101442.31;1637769;86;21560;-91
2020/12/30 19:45:18;;;;;;;49.88;18.82;;;;;;;3.34;93.08;101440.80;1664925;86;21259;-91
2020/12/30 19:47:44;;;;;;;55.73;21.10;;;;;;;3.29;93.45;101441.87;1664696;84;20982;-91
2020/12/30 19:50:09;;;;;;;57.40;20.65;;;;;;;3.25;93.19;101432.63;1664683;86;21025;-91
2020/12/30 19:52:35;;;;;;;53.02;18.40;;;;;;;3.14;93.35;101435.27;1664860;86;20962;-91
2020/12/30 19:55:01;;;;;;;61.88;21.65;;;;;;;3.05;94.07;101441.23;1664879;86;21114;-90
2020/12/30 19:57:28;;;;;;;58.78;19.25;;;;;;;3.09;94.37;101437.19;1664748;85;21187;-91
2020/12/30 19:59:54;;;;;;;51.58;19.17;;;;;;;2.99;94.38;101437.17;1665193;85;21097;-90
2020/12/30 20:02:21;;;;;;;50.43;19.73;;;;;;;3.11;93.93;101435.14;1698955;83;21195;-91
2020/12/30 20:04:47;;;;;;;49.03;19.85;;;;;;;3.31;93.36;101438.00;1705297;84;21153;-91
2020/12/30 20:07:13;;;;;;;48.15;19.37;;;;;;;3.41;92.50;101439.85;1705390;84;21601;-91
2020/12/30 20:09:39;;;;;;;49.67;18.75;;;;;;;3.27;93.10;101441.25;1705353;83;21149;-91
2020/12/30 20:12:05;;;;;;;51.63;19.48;;;;;;;3.11;93.46;101437.80;1705215;84;20919;-91
2020/12/30 20:14:31;;;;;;;45.28;17.77;;;;;;;3.19;93.43;101439.02;1705438;84;21133;-91
2020/12/30 20:16:57;;;;;;;51.15;18.67;;;;;;;3.16;93.15;101438.06;1705236;84;21153;-91
2020/12/30 20:19:23;;;;;;;46.40;17.52;;;;;;;3.07;93.49;101424.56;1705308;84;21162;-91
2020/12/30 20:21:50;;;;;;;44.73;17.55;;;;;;;3.19;93.08;101429.70;1705312;84;21984;-91
2020/12/30 20:24:18;;;;;;;44.30;16.85;;;;;;;3.15;92.65;101431.11;1705156;84;21157;-91
2020/12/30 20:26:44;;;;;;;43.87;16.37;;;;;;;3.19;92.49;101428.37;1704973;84;21137;-91
2020/12/30 20:29:10;;;;;;;47.83;17.15;;;;;;;3.15;92.62;101427.11;1705240;83;21145;-91
2020/12/30 20:31:37;;;;;;;45.10;16.17;;;;;;;3.25;92.40;101441.95;1685009;82;21193;-91
2020/12/30 20:34:03;;;;;;;42.50;15.38;;;;;;;3.27;91.58;101439.92;1705389;82;21538;-90
2020/12/30 20:36:32;;;;;;;42.15;15.15;;;;;;;3.26;91.71;101436.92;1684908;84;21145;-90
2020/12/30 20:38:57;;;;;;;38.13;15.28;;;;;;;3.23;91.55;101434.64;1705225;83;21152;-91
2020/12/30 20:41:23;;;;;;;40.25;15.00;;;;;;;3.12;91.53;101435.48;1705341;83;21030;-91
2020/12/30 20:43:49;;;;;;;45.30;16.57;;;;;;;3.32;90.92;101430.83;1705355;83;20986;-91